sensor_id;sensor_type;location;lat;lon;timestamp;temperature;humidity
76172;DHT22;64929;51.178;4.138;2023-02-03T00:01:06;10.10;83.00
76172;DHT22;64929;51.178;4.138;2023-02-03T00:03:32;10.20;82.80
76172;DHT22;64929;51.178;4.138;2023-02-03T00:06:00;10.20;82.70
76172;DHT22;64929;51.178;4.138;2023-02-03T00:08:26;10.20;83.00
76172;DHT22;64929;51.178;4.138;2023-02-03T00:10:52;10.30;82.40
76172;DHT22;64929;51.178;4.138;2023-02-03T00:13:19;10.30;82.50
76172;DHT22;64929;51.178;4.138;2023-02-03T00:15:44;10.30;82.50
76172;DHT22;64929;51.178;4.138;2023-02-03T00:18:10;10.30;82.50
76172;DHT22;64929;51.178;4.138;2023-02-03T00:20:36;10.30;82.50
76172;DHT22;64929;51.178;4.138;2023-02-03T00:23:03;10.20;82.80
76172;DHT22;64929;51.178;4.138;2023-02-03T00:25:29;10.40;82.00
76172;DHT22;64929;51.178;4.138;2023-02-03T00:27:55;10.40;81.90
76172;DHT22;64929;51.178;4.138;2023-02-03T00:30:21;10.40;81.70
76172;DHT22;64929;51.178;4.138;2023-02-03T00:32:46;10.50;81.50
76172;DHT22;64929;51.178;4.138;2023-02-03T00:35:12;10.50;81.40
76172;DHT22;64929;51.178;4.138;2023-02-03T00:37:38;10.60;81.10
76172;DHT22;64929;51.178;4.138;2023-02-03T00:40:03;10.50;81.50
76172;DHT22;64929;51.178;4.138;2023-02-03T00:42:29;10.40;81.50
76172;DHT22;64929;51.178;4.138;2023-02-03T00:44:55;10.40;81.60
76172;DHT22;64929;51.178;4.138;2023-02-03T00:47:21;10.50;80.90
76172;DHT22;64929;51.178;4.138;2023-02-03T00:49:46;10.50;80.90
76172;DHT22;64929;51.178;4.138;2023-02-03T00:52:12;10.60;80.60
76172;DHT22;64929;51.178;4.138;2023-02-03T00:54:38;10.60;80.40
76172;DHT22;64929;51.178;4.138;2023-02-03T00:57:03;10.50;80.90
76172;DHT22;64929;51.178;4.138;2023-02-03T00:59:29;10.50;81.20
76172;DHT22;64929;51.178;4.138;2023-02-03T01:01:55;10.50;80.90
76172;DHT22;64929;51.178;4.138;2023-02-03T01:04:20;10.50;80.60
76172;DHT22;64929;51.178;4.138;2023-02-03T01:06:46;10.50;80.30
76172;DHT22;64929;51.178;4.138;2023-02-03T01:09:12;10.60;79.80
76172;DHT22;64929;51.178;4.138;2023-02-03T01:11:37;10.60;79.50
76172;DHT22;64929;51.178;4.138;2023-02-03T01:14:03;10.70;79.10
76172;DHT22;64929;51.178;4.138;2023-02-03T01:16:29;10.60;79.40
76172;DHT22;64929;51.178;4.138;2023-02-03T01:18:56;10.60;79.30
76172;DHT22;64929;51.178;4.138;2023-02-03T01:21:23;10.70;78.90
76172;DHT22;64929;51.178;4.138;2023-02-03T01:23:51;10.80;78.50
76172;DHT22;64929;51.178;4.138;2023-02-03T01:26:21;10.70;78.90
76172;DHT22;64929;51.178;4.138;2023-02-03T01:28:52;10.70;78.90
76172;DHT22;64929;51.178;4.138;2023-02-03T01:31:27;10.60;79.30
76172;DHT22;64929;51.178;4.138;2023-02-03T01:33:53;10.70;79.10
76172;DHT22;64929;51.178;4.138;2023-02-03T01:36:20;10.70;79.00
76172;DHT22;64929;51.178;4.138;2023-02-03T01:38:47;10.70;78.80
76172;DHT22;64929;51.178;4.138;2023-02-03T01:41:18;10.80;78.60
76172;DHT22;64929;51.178;4.138;2023-02-03T01:43:51;10.90;78.30
76172;DHT22;64929;51.178;4.138;2023-02-03T01:46:38;10.80;78.20
76172;DHT22;64929;51.178;4.138;2023-02-03T01:51:40;10.90;78.10
76172;DHT22;64929;51.178;4.138;2023-02-03T01:54:09;10.80;78.50
76172;DHT22;64929;51.178;4.138;2023-02-03T01:56:39;10.80;78.40
76172;DHT22;64929;51.178;4.138;2023-02-03T01:59:07;10.80;78.10
76172;DHT22;64929;51.178;4.138;2023-02-03T02:01:33;10.80;78.20
76172;DHT22;64929;51.178;4.138;2023-02-03T02:04:02;10.80;77.90
76172;DHT22;64929;51.178;4.138;2023-02-03T02:06:29;10.70;78.10
76172;DHT22;64929;51.178;4.138;2023-02-03T02:08:56;10.70;78.40
76172;DHT22;64929;51.178;4.138;2023-02-03T02:11:23;10.80;77.90
76172;DHT22;64929;51.178;4.138;2023-02-03T02:13:51;10.80;77.70
76172;DHT22;64929;51.178;4.138;2023-02-03T02:27:34;10.70;78.00
76172;DHT22;64929;51.178;4.138;2023-02-03T02:33:16;10.70;77.70
76172;DHT22;64929;51.178;4.138;2023-02-03T02:36:08;10.70;77.80
76172;DHT22;64929;51.178;4.138;2023-02-03T02:41:20;10.60;77.60
76172;DHT22;64929;51.178;4.138;2023-02-03T02:43:59;10.70;77.60
76172;DHT22;64929;51.178;4.138;2023-02-03T02:46:40;10.80;77.40
76172;DHT22;64929;51.178;4.138;2023-02-03T02:49:15;10.80;77.20
76172;DHT22;64929;51.178;4.138;2023-02-03T02:51:44;10.70;77.30
76172;DHT22;64929;51.178;4.138;2023-02-03T02:54:16;10.80;76.90
76172;DHT22;64929;51.178;4.138;2023-02-03T02:56:45;10.80;77.20
76172;DHT22;64929;51.178;4.138;2023-02-03T02:59:14;10.70;76.90
76172;DHT22;64929;51.178;4.138;2023-02-03T03:01:40;10.70;77.30
76172;DHT22;64929;51.178;4.138;2023-02-03T03:04:08;10.70;77.60
76172;DHT22;64929;51.178;4.138;2023-02-03T03:06:58;10.70;77.60
76172;DHT22;64929;51.178;4.138;2023-02-03T03:09:27;10.70;77.60
76172;DHT22;64929;51.178;4.138;2023-02-03T03:12:07;10.70;77.30
76172;DHT22;64929;51.178;4.138;2023-02-03T03:14:35;10.70;77.40
76172;DHT22;64929;51.178;4.138;2023-02-03T03:17:05;10.70;77.70
76172;DHT22;64929;51.178;4.138;2023-02-03T03:19:37;10.60;78.20
76172;DHT22;64929;51.178;4.138;2023-02-03T03:22:05;10.70;77.70
76172;DHT22;64929;51.178;4.138;2023-02-03T03:24:36;10.80;77.30
76172;DHT22;64929;51.178;4.138;2023-02-03T03:27:20;10.70;77.60
76172;DHT22;64929;51.178;4.138;2023-02-03T03:32:36;10.70;77.50
76172;DHT22;64929;51.178;4.138;2023-02-03T03:35:03;10.70;77.80
76172;DHT22;64929;51.178;4.138;2023-02-03T03:37:55;10.80;77.60
76172;DHT22;64929;51.178;4.138;2023-02-03T03:40:29;10.70;77.70
76172;DHT22;64929;51.178;4.138;2023-02-03T03:42:57;10.70;77.80
76172;DHT22;64929;51.178;4.138;2023-02-03T03:48:00;10.80;77.60
76172;DHT22;64929;51.178;4.138;2023-02-03T03:50:32;10.80;77.50
76172;DHT22;64929;51.178;4.138;2023-02-03T03:53:00;10.70;78.00
76172;DHT22;64929;51.178;4.138;2023-02-03T03:55:30;10.50;78.60
76172;DHT22;64929;51.178;4.138;2023-02-03T03:58:03;10.60;78.30
76172;DHT22;64929;51.178;4.138;2023-02-03T04:00:33;10.60;78.20
76172;DHT22;64929;51.178;4.138;2023-02-03T04:03:04;10.50;78.60
76172;DHT22;64929;51.178;4.138;2023-02-03T04:05:32;10.40;79.00
76172;DHT22;64929;51.178;4.138;2023-02-03T04:07:58;10.50;78.90
76172;DHT22;64929;51.178;4.138;2023-02-03T04:10:37;10.50;79.20
76172;DHT22;64929;51.178;4.138;2023-02-03T04:13:04;10.60;79.00
76172;DHT22;64929;51.178;4.138;2023-02-03T04:15:30;10.50;79.00
76172;DHT22;64929;51.178;4.138;2023-02-03T04:17:56;10.60;78.70
76172;DHT22;64929;51.178;4.138;2023-02-03T04:20:23;10.60;78.80
76172;DHT22;64929;51.178;4.138;2023-02-03T04:22:49;10.60;78.80
76172;DHT22;64929;51.178;4.138;2023-02-03T04:25:15;10.60;78.40
76172;DHT22;64929;51.178;4.138;2023-02-03T04:27:40;10.70;78.30
76172;DHT22;64929;51.178;4.138;2023-02-03T04:30:07;10.50;78.70
76172;DHT22;64929;51.178;4.138;2023-02-03T04:32:33;10.60;78.50
76172;DHT22;64929;51.178;4.138;2023-02-03T04:35:00;10.60;78.20
76172;DHT22;64929;51.178;4.138;2023-02-03T04:37:26;10.70;77.60
76172;DHT22;64929;51.178;4.138;2023-02-03T04:39:55;10.50;78.30
76172;DHT22;64929;51.178;4.138;2023-02-03T04:42:22;10.60;78.20
76172;DHT22;64929;51.178;4.138;2023-02-03T04:44:47;10.50;78.60
76172;DHT22;64929;51.178;4.138;2023-02-03T04:47:14;10.60;78.40
76172;DHT22;64929;51.178;4.138;2023-02-03T04:49:40;10.50;78.20
76172;DHT22;64929;51.178;4.138;2023-02-03T04:52:05;10.60;78.50
76172;DHT22;64929;51.178;4.138;2023-02-03T04:54:31;10.70;78.00
76172;DHT22;64929;51.178;4.138;2023-02-03T04:56:57;10.60;78.20
76172;DHT22;64929;51.178;4.138;2023-02-03T04:59:22;10.50;78.70
76172;DHT22;64929;51.178;4.138;2023-02-03T05:01:48;10.50;79.00
76172;DHT22;64929;51.178;4.138;2023-02-03T05:04:14;10.40;79.40
76172;DHT22;64929;51.178;4.138;2023-02-03T05:06:39;10.70;78.60
76172;DHT22;64929;51.178;4.138;2023-02-03T05:09:05;10.50;79.10
76172;DHT22;64929;51.178;4.138;2023-02-03T05:11:31;10.40;79.30
76172;DHT22;64929;51.178;4.138;2023-02-03T05:13:57;10.60;78.80
76172;DHT22;64929;51.178;4.138;2023-02-03T05:16:23;10.50;79.10
76172;DHT22;64929;51.178;4.138;2023-02-03T05:18:48;10.50;79.00
76172;DHT22;64929;51.178;4.138;2023-02-03T05:21:14;10.60;78.90
76172;DHT22;64929;51.178;4.138;2023-02-03T05:23:40;10.50;78.90
76172;DHT22;64929;51.178;4.138;2023-02-03T05:26:06;10.50;78.90
76172;DHT22;64929;51.178;4.138;2023-02-03T05:28:32;10.50;79.10
76172;DHT22;64929;51.178;4.138;2023-02-03T05:30:58;10.50;78.60
76172;DHT22;64929;51.178;4.138;2023-02-03T05:33:24;10.60;78.50
76172;DHT22;64929;51.178;4.138;2023-02-03T05:35:50;10.60;78.10
76172;DHT22;64929;51.178;4.138;2023-02-03T05:38:16;10.60;78.00
76172;DHT22;64929;51.178;4.138;2023-02-03T05:40:41;10.50;78.30
76172;DHT22;64929;51.178;4.138;2023-02-03T05:43:27;10.50;78.30
76172;DHT22;64929;51.178;4.138;2023-02-03T05:45:53;10.60;78.10
76172;DHT22;64929;51.178;4.138;2023-02-03T05:48:19;10.60;78.10
76172;DHT22;64929;51.178;4.138;2023-02-03T05:50:44;10.50;77.90
76172;DHT22;64929;51.178;4.138;2023-02-03T05:53:10;10.50;78.00
76172;DHT22;64929;51.178;4.138;2023-02-03T05:55:36;10.50;77.50
76172;DHT22;64929;51.178;4.138;2023-02-03T05:58:02;10.50;77.80
76172;DHT22;64929;51.178;4.138;2023-02-03T06:00:28;10.50;77.80
76172;DHT22;64929;51.178;4.138;2023-02-03T06:02:58;10.50;77.90
76172;DHT22;64929;51.178;4.138;2023-02-03T06:05:27;10.40;78.10
76172;DHT22;64929;51.178;4.138;2023-02-03T06:07:53;10.30;78.40
76172;DHT22;64929;51.178;4.138;2023-02-03T06:10:19;10.30;78.20
76172;DHT22;64929;51.178;4.138;2023-02-03T06:12:45;10.30;78.30
76172;DHT22;64929;51.178;4.138;2023-02-03T06:15:10;10.30;77.90
76172;DHT22;64929;51.178;4.138;2023-02-03T06:17:36;10.30;77.90
76172;DHT22;64929;51.178;4.138;2023-02-03T06:20:04;10.30;77.90
76172;DHT22;64929;51.178;4.138;2023-02-03T06:22:30;10.20;78.30
76172;DHT22;64929;51.178;4.138;2023-02-03T06:24:56;10.30;77.80
76172;DHT22;64929;51.178;4.138;2023-02-03T06:27:21;10.30;77.80
76172;DHT22;64929;51.178;4.138;2023-02-03T06:29:47;10.40;77.30
76172;DHT22;64929;51.178;4.138;2023-02-03T06:32:13;10.40;77.60
76172;DHT22;64929;51.178;4.138;2023-02-03T06:34:39;10.50;77.00
76172;DHT22;64929;51.178;4.138;2023-02-03T06:37:04;10.50;76.90
76172;DHT22;64929;51.178;4.138;2023-02-03T06:39:30;10.40;77.20
76172;DHT22;64929;51.178;4.138;2023-02-03T06:41:56;10.50;77.20
76172;DHT22;64929;51.178;4.138;2023-02-03T06:44:21;10.60;76.60
76172;DHT22;64929;51.178;4.138;2023-02-03T06:46:47;10.60;76.80
76172;DHT22;64929;51.178;4.138;2023-02-03T06:49:15;10.60;76.80
76172;DHT22;64929;51.178;4.138;2023-02-03T06:51:42;10.60;76.90
76172;DHT22;64929;51.178;4.138;2023-02-03T06:54:07;10.40;77.80
76172;DHT22;64929;51.178;4.138;2023-02-03T06:56:34;10.40;78.30
76172;DHT22;64929;51.178;4.138;2023-02-03T06:58:59;10.50;77.90
76172;DHT22;64929;51.178;4.138;2023-02-03T07:01:25;10.50;77.90
76172;DHT22;64929;51.178;4.138;2023-02-03T07:03:51;10.50;77.90
76172;DHT22;64929;51.178;4.138;2023-02-03T07:06:17;10.40;78.40
76172;DHT22;64929;51.178;4.138;2023-02-03T07:08:43;10.50;78.00
76172;DHT22;64929;51.178;4.138;2023-02-03T07:11:09;10.50;77.80
76172;DHT22;64929;51.178;4.138;2023-02-03T07:13:35;10.40;78.30
76172;DHT22;64929;51.178;4.138;2023-02-03T07:16:00;10.40;78.00
76172;DHT22;64929;51.178;4.138;2023-02-03T07:18:26;10.50;78.20
76172;DHT22;64929;51.178;4.138;2023-02-03T07:20:52;10.50;78.20
76172;DHT22;64929;51.178;4.138;2023-02-03T07:23:18;10.50;78.20
76172;DHT22;64929;51.178;4.138;2023-02-03T07:25:44;10.40;78.40
76172;DHT22;64929;51.178;4.138;2023-02-03T07:28:10;10.50;78.10
76172;DHT22;64929;51.178;4.138;2023-02-03T07:30:35;10.60;77.40
76172;DHT22;64929;51.178;4.138;2023-02-03T07:33:01;10.60;77.50
76172;DHT22;64929;51.178;4.138;2023-02-03T07:35:27;10.50;77.70
76172;DHT22;64929;51.178;4.138;2023-02-03T07:37:53;10.50;78.00
76172;DHT22;64929;51.178;4.138;2023-02-03T07:40:19;10.50;78.00
76172;DHT22;64929;51.178;4.138;2023-02-03T07:42:48;10.40;78.30
76172;DHT22;64929;51.178;4.138;2023-02-03T07:45:16;10.50;78.30
76172;DHT22;64929;51.178;4.138;2023-02-03T07:47:43;10.50;78.30
76172;DHT22;64929;51.178;4.138;2023-02-03T07:50:12;10.40;78.60
76172;DHT22;64929;51.178;4.138;2023-02-03T07:52:38;10.40;78.30
76172;DHT22;64929;51.178;4.138;2023-02-03T07:55:04;10.50;78.70
76172;DHT22;64929;51.178;4.138;2023-02-03T07:57:30;10.40;78.80
76172;DHT22;64929;51.178;4.138;2023-02-03T07:59:55;10.40;78.80
76172;DHT22;64929;51.178;4.138;2023-02-03T08:02:21;10.50;78.40
76172;DHT22;64929;51.178;4.138;2023-02-03T08:04:47;10.50;78.20
76172;DHT22;64929;51.178;4.138;2023-02-03T08:07:12;10.50;78.60
76172;DHT22;64929;51.178;4.138;2023-02-03T08:09:38;10.50;78.30
76172;DHT22;64929;51.178;4.138;2023-02-03T08:12:04;10.60;78.10
76172;DHT22;64929;51.178;4.138;2023-02-03T08:14:29;10.60;78.30
76172;DHT22;64929;51.178;4.138;2023-02-03T08:16:56;10.50;78.50
76172;DHT22;64929;51.178;4.138;2023-02-03T08:19:21;10.50;78.70
76172;DHT22;64929;51.178;4.138;2023-02-03T08:21:47;10.50;78.60
76172;DHT22;64929;51.178;4.138;2023-02-03T08:24:13;10.50;78.80
76172;DHT22;64929;51.178;4.138;2023-02-03T08:26:39;10.70;78.20
76172;DHT22;64929;51.178;4.138;2023-02-03T08:29:04;10.70;77.70
76172;DHT22;64929;51.178;4.138;2023-02-03T08:31:30;10.70;78.10
76172;DHT22;64929;51.178;4.138;2023-02-03T08:33:56;10.70;77.90
76172;DHT22;64929;51.178;4.138;2023-02-03T08:36:22;10.70;78.30
76172;DHT22;64929;51.178;4.138;2023-02-03T08:38:48;10.70;78.30
76172;DHT22;64929;51.178;4.138;2023-02-03T08:41:15;10.70;78.30
76172;DHT22;64929;51.178;4.138;2023-02-03T08:43:43;10.70;77.90
76172;DHT22;64929;51.178;4.138;2023-02-03T08:46:10;10.70;78.20
76172;DHT22;64929;51.178;4.138;2023-02-03T08:48:36;10.70;78.30
76172;DHT22;64929;51.178;4.138;2023-02-03T08:51:07;10.80;77.70
76172;DHT22;64929;51.178;4.138;2023-02-03T08:53:33;10.80;77.60
76172;DHT22;64929;51.178;4.138;2023-02-03T08:55:59;11.00;77.30
76172;DHT22;64929;51.178;4.138;2023-02-03T08:58:28;11.10;76.90
76172;DHT22;64929;51.178;4.138;2023-02-03T09:00:54;11.00;77.40
76172;DHT22;64929;51.178;4.138;2023-02-03T09:03:19;11.00;77.20
76172;DHT22;64929;51.178;4.138;2023-02-03T09:05:45;11.00;77.10
76172;DHT22;64929;51.178;4.138;2023-02-03T09:08:11;11.00;77.20
76172;DHT22;64929;51.178;4.138;2023-02-03T09:10:37;11.00;77.30
76172;DHT22;64929;51.178;4.138;2023-02-03T09:13:02;11.00;77.50
76172;DHT22;64929;51.178;4.138;2023-02-03T09:15:28;10.90;77.80
76172;DHT22;64929;51.178;4.138;2023-02-03T09:17:53;11.00;77.80
76172;DHT22;64929;51.178;4.138;2023-02-03T09:20:21;11.10;77.60
76172;DHT22;64929;51.178;4.138;2023-02-03T09:22:49;11.10;77.00
76172;DHT22;64929;51.178;4.138;2023-02-03T09:25:14;11.20;77.10
76172;DHT22;64929;51.178;4.138;2023-02-03T09:27:40;11.20;77.20
76172;DHT22;64929;51.178;4.138;2023-02-03T09:30:06;11.20;77.10
76172;DHT22;64929;51.178;4.138;2023-02-03T09:32:32;11.30;77.20
76172;DHT22;64929;51.178;4.138;2023-02-03T09:34:58;11.20;77.00
76172;DHT22;64929;51.178;4.138;2023-02-03T09:37:24;11.40;76.40
76172;DHT22;64929;51.178;4.138;2023-02-03T09:39:49;11.50;76.60
76172;DHT22;64929;51.178;4.138;2023-02-03T09:45:39;11.50;75.60
76172;DHT22;64929;51.178;4.138;2023-02-03T09:48:13;11.60;75.70
76172;DHT22;64929;51.178;4.138;2023-02-03T09:50:42;11.70;75.40
76172;DHT22;64929;51.178;4.138;2023-02-03T09:55:47;11.60;76.00
76172;DHT22;64929;51.178;4.138;2023-02-03T09:58:15;11.50;76.20
76172;DHT22;64929;51.178;4.138;2023-02-03T10:00:56;11.70;75.50
76172;DHT22;64929;51.178;4.138;2023-02-03T10:06:19;11.70;75.70
76172;DHT22;64929;51.178;4.138;2023-02-03T10:17:40;12.10;73.90
76172;DHT22;64929;51.178;4.138;2023-02-03T10:22:47;11.90;74.80
76172;DHT22;64929;51.178;4.138;2023-02-03T10:27:40;11.90;75.00
76172;DHT22;64929;51.178;4.138;2023-02-03T10:30:24;11.80;75.00
76172;DHT22;64929;51.178;4.138;2023-02-03T10:33:09;11.90;75.20
76172;DHT22;64929;51.178;4.138;2023-02-03T10:35:51;12.00;74.30
76172;DHT22;64929;51.178;4.138;2023-02-03T10:38:34;12.00;74.70
76172;DHT22;64929;51.178;4.138;2023-02-03T10:41:04;12.00;74.50
76172;DHT22;64929;51.178;4.138;2023-02-03T10:43:31;11.90;74.50
76172;DHT22;64929;51.178;4.138;2023-02-03T10:46:13;11.80;75.10
76172;DHT22;64929;51.178;4.138;2023-02-03T10:48:40;11.70;75.40
76172;DHT22;64929;51.178;4.138;2023-02-03T10:51:17;11.70;75.90
76172;DHT22;64929;51.178;4.138;2023-02-03T10:53:43;11.70;75.80
76172;DHT22;64929;51.178;4.138;2023-02-03T10:56:15;11.80;75.70
76172;DHT22;64929;51.178;4.138;2023-02-03T10:58:54;11.60;76.20
76172;DHT22;64929;51.178;4.138;2023-02-03T11:01:26;11.70;76.00
76172;DHT22;64929;51.178;4.138;2023-02-03T11:06:24;11.70;75.60
76172;DHT22;64929;51.178;4.138;2023-02-03T11:08:53;11.60;76.10
76172;DHT22;64929;51.178;4.138;2023-02-03T11:11:21;11.70;76.40
76172;DHT22;64929;51.178;4.138;2023-02-03T11:16:31;11.90;75.60
76172;DHT22;64929;51.178;4.138;2023-02-03T11:19:02;11.90;75.80
76172;DHT22;64929;51.178;4.138;2023-02-03T11:24:19;11.90;75.90
76172;DHT22;64929;51.178;4.138;2023-02-03T11:26:50;11.90;75.70
76172;DHT22;64929;51.178;4.138;2023-02-03T11:29:35;11.80;76.40
76172;DHT22;64929;51.178;4.138;2023-02-03T11:32:23;11.80;76.30
76172;DHT22;64929;51.178;4.138;2023-02-03T11:37:58;11.80;76.50
76172;DHT22;64929;51.178;4.138;2023-02-03T11:40:32;11.70;77.10
76172;DHT22;64929;51.178;4.138;2023-02-03T11:43:02;11.80;76.80
76172;DHT22;64929;51.178;4.138;2023-02-03T12:08:38;11.90;76.90
76172;DHT22;64929;51.178;4.138;2023-02-03T12:11:11;11.90;76.50
76172;DHT22;64929;51.178;4.138;2023-02-03T12:16:21;11.90;76.70
76172;DHT22;64929;51.178;4.138;2023-02-03T12:30:37;12.00;76.30
76172;DHT22;64929;51.178;4.138;2023-02-03T12:33:10;12.00;76.10
76172;DHT22;64929;51.178;4.138;2023-02-03T12:35:46;12.00;76.00
76172;DHT22;64929;51.178;4.138;2023-02-03T12:38:15;12.00;76.10
76172;DHT22;64929;51.178;4.138;2023-02-03T12:41:06;11.90;76.50
76172;DHT22;64929;51.178;4.138;2023-02-03T12:43:44;11.90;76.60
76172;DHT22;64929;51.178;4.138;2023-02-03T12:46:34;11.90;76.50
76172;DHT22;64929;51.178;4.138;2023-02-03T12:49:08;12.00;76.40
76172;DHT22;64929;51.178;4.138;2023-02-03T12:51:40;12.00;76.50
76172;DHT22;64929;51.178;4.138;2023-02-03T12:57:33;12.00;76.90
76172;DHT22;64929;51.178;4.138;2023-02-03T13:00:17;11.80;77.30
76172;DHT22;64929;51.178;4.138;2023-02-03T13:03:01;11.90;76.80
76172;DHT22;64929;51.178;4.138;2023-02-03T13:05:41;12.10;76.10
76172;DHT22;64929;51.178;4.138;2023-02-03T13:08:40;12.10;76.00
76172;DHT22;64929;51.178;4.138;2023-02-03T13:11:23;12.20;76.00
76172;DHT22;64929;51.178;4.138;2023-02-03T13:13:56;12.20;76.40
76172;DHT22;64929;51.178;4.138;2023-02-03T13:16:32;12.00;76.40
76172;DHT22;64929;51.178;4.138;2023-02-03T13:19:14;12.10;76.20
76172;DHT22;64929;51.178;4.138;2023-02-03T13:21:41;12.20;76.10
76172;DHT22;64929;51.178;4.138;2023-02-03T13:24:10;12.10;76.00
76172;DHT22;64929;51.178;4.138;2023-02-03T13:27:30;12.20;76.50
76172;DHT22;64929;51.178;4.138;2023-02-03T13:29:49;12.00;76.30
76172;DHT22;64929;51.178;4.138;2023-02-03T13:32:30;12.20;76.00
76172;DHT22;64929;51.178;4.138;2023-02-03T13:42:46;12.10;76.70
76172;DHT22;64929;51.178;4.138;2023-02-03T13:45:30;12.10;76.30
76172;DHT22;64929;51.178;4.138;2023-02-03T13:48:07;12.00;76.90
76172;DHT22;64929;51.178;4.138;2023-02-03T13:50:36;12.00;76.90
76172;DHT22;64929;51.178;4.138;2023-02-03T13:53:07;12.10;77.00
76172;DHT22;64929;51.178;4.138;2023-02-03T13:56:02;12.00;77.30
76172;DHT22;64929;51.178;4.138;2023-02-03T13:58:34;12.10;76.70
76172;DHT22;64929;51.178;4.138;2023-02-03T14:01:04;12.10;76.90
76172;DHT22;64929;51.178;4.138;2023-02-03T14:05:57;12.20;76.30
76172;DHT22;64929;51.178;4.138;2023-02-03T14:19:03;11.90;77.40
76172;DHT22;64929;51.178;4.138;2023-02-03T14:24:12;11.80;77.90
76172;DHT22;64929;51.178;4.138;2023-02-03T14:26:42;11.90;77.90
76172;DHT22;64929;51.178;4.138;2023-02-03T14:29:22;11.90;78.00
76172;DHT22;64929;51.178;4.138;2023-02-03T14:32:15;11.90;77.70
76172;DHT22;64929;51.178;4.138;2023-02-03T14:34:48;11.90;77.70
76172;DHT22;64929;51.178;4.138;2023-02-03T14:39:49;12.10;77.70
76172;DHT22;64929;51.178;4.138;2023-02-03T14:53:53;12.10;77.40
76172;DHT22;64929;51.178;4.138;2023-02-03T14:59:26;11.90;77.60
76172;DHT22;64929;51.178;4.138;2023-02-03T15:02:10;11.90;78.10
76172;DHT22;64929;51.178;4.138;2023-02-03T15:04:36;12.00;77.80
76172;DHT22;64929;51.178;4.138;2023-02-03T15:07:02;11.90;78.20
76172;DHT22;64929;51.178;4.138;2023-02-03T15:11:59;12.00;77.60
76172;DHT22;64929;51.178;4.138;2023-02-03T15:14:28;11.90;78.30
76172;DHT22;64929;51.178;4.138;2023-02-03T15:17:11;11.90;78.00
76172;DHT22;64929;51.178;4.138;2023-02-03T15:19:40;11.90;78.00
76172;DHT22;64929;51.178;4.138;2023-02-03T15:24:43;11.90;78.20
76172;DHT22;64929;51.178;4.138;2023-02-03T15:27:23;11.90;78.20
76172;DHT22;64929;51.178;4.138;2023-02-03T15:29:50;11.90;78.70
76172;DHT22;64929;51.178;4.138;2023-02-03T15:32:30;11.90;78.50
76172;DHT22;64929;51.178;4.138;2023-02-03T15:34:58;11.80;78.70
76172;DHT22;64929;51.178;4.138;2023-02-03T15:37:55;11.90;78.70
76172;DHT22;64929;51.178;4.138;2023-02-03T15:40:24;11.80;78.80
76172;DHT22;64929;51.178;4.138;2023-02-03T15:43:01;11.80;78.90
76172;DHT22;64929;51.178;4.138;2023-02-03T15:45:40;11.80;78.90
76172;DHT22;64929;51.178;4.138;2023-02-03T15:51:17;11.80;79.10
76172;DHT22;64929;51.178;4.138;2023-02-03T15:56:20;11.90;79.30
76172;DHT22;64929;51.178;4.138;2023-02-03T15:58:48;11.80;78.90
76172;DHT22;64929;51.178;4.138;2023-02-03T16:01:14;11.80;79.00
76172;DHT22;64929;51.178;4.138;2023-02-03T16:03:49;11.80;79.00
76172;DHT22;64929;51.178;4.138;2023-02-03T16:06:34;11.80;78.60
76172;DHT22;64929;51.178;4.138;2023-02-03T16:09:04;11.80;78.90
76172;DHT22;64929;51.178;4.138;2023-02-03T16:11:36;11.60;79.40
76172;DHT22;64929;51.178;4.138;2023-02-03T16:14:08;11.60;79.30
76172;DHT22;64929;51.178;4.138;2023-02-03T16:16:58;11.50;79.70
76172;DHT22;64929;51.178;4.138;2023-02-03T16:19:27;11.50;79.60
76172;DHT22;64929;51.178;4.138;2023-02-03T16:21:55;11.40;80.10
76172;DHT22;64929;51.178;4.138;2023-02-03T16:30:00;11.30;80.70
76172;DHT22;64929;51.178;4.138;2023-02-03T16:35:52;11.10;80.80
76172;DHT22;64929;51.178;4.138;2023-02-03T16:38:36;11.20;80.60
76172;DHT22;64929;51.178;4.138;2023-02-03T16:41:20;11.40;79.90
76172;DHT22;64929;51.178;4.138;2023-02-03T16:44:04;11.50;79.70
76172;DHT22;64929;51.178;4.138;2023-02-03T16:46:48;11.50;79.50
76172;DHT22;64929;51.178;4.138;2023-02-03T16:49:33;11.40;79.80
76172;DHT22;64929;51.178;4.138;2023-02-03T16:52:17;11.30;80.10
76172;DHT22;64929;51.178;4.138;2023-02-03T16:54:43;11.50;79.60
76172;DHT22;64929;51.178;4.138;2023-02-03T16:57:08;11.40;80.50
76172;DHT22;64929;51.178;4.138;2023-02-03T16:59:34;11.40;79.90
76172;DHT22;64929;51.178;4.138;2023-02-03T17:02:00;11.50;79.80
76172;DHT22;64929;51.178;4.138;2023-02-03T17:04:25;11.50;79.30
76172;DHT22;64929;51.178;4.138;2023-02-03T17:06:51;11.50;79.40
76172;DHT22;64929;51.178;4.138;2023-02-03T17:09:17;11.60;79.10
76172;DHT22;64929;51.178;4.138;2023-02-03T17:11:48;11.60;79.10
76172;DHT22;64929;51.178;4.138;2023-02-03T17:14:14;11.40;79.90
76172;DHT22;64929;51.178;4.138;2023-02-03T17:16:40;11.30;80.40
76172;DHT22;64929;51.178;4.138;2023-02-03T17:19:09;11.40;80.20
76172;DHT22;64929;51.178;4.138;2023-02-03T17:21:35;11.40;79.90
76172;DHT22;64929;51.178;4.138;2023-02-03T17:24:01;11.30;80.10
76172;DHT22;64929;51.178;4.138;2023-02-03T17:26:27;11.20;80.30
76172;DHT22;64929;51.178;4.138;2023-02-03T17:28:53;11.20;80.40
76172;DHT22;64929;51.178;4.138;2023-02-03T17:31:19;11.30;80.30
76172;DHT22;64929;51.178;4.138;2023-02-03T17:33:50;11.10;81.20
76172;DHT22;64929;51.178;4.138;2023-02-03T17:36:18;11.20;81.30
76172;DHT22;64929;51.178;4.138;2023-02-03T17:38:46;11.20;80.90
76172;DHT22;64929;51.178;4.138;2023-02-03T17:41:14;11.30;80.60
76172;DHT22;64929;51.178;4.138;2023-02-03T17:43:40;11.30;80.40
76172;DHT22;64929;51.178;4.138;2023-02-03T17:46:07;11.30;80.70
76172;DHT22;64929;51.178;4.138;2023-02-03T17:48:33;11.20;80.60
76172;DHT22;64929;51.178;4.138;2023-02-03T17:51:21;11.30;80.40
76172;DHT22;64929;51.178;4.138;2023-02-03T17:53:49;11.40;80.40
76172;DHT22;64929;51.178;4.138;2023-02-03T17:56:17;11.40;80.00
76172;DHT22;64929;51.178;4.138;2023-02-03T17:58:44;11.50;80.00
76172;DHT22;64929;51.178;4.138;2023-02-03T18:01:16;11.60;79.50
76172;DHT22;64929;51.178;4.138;2023-02-03T18:03:43;11.40;79.90
76172;DHT22;64929;51.178;4.138;2023-02-03T18:06:10;11.50;80.10
76172;DHT22;64929;51.178;4.138;2023-02-03T18:08:35;11.50;80.00
76172;DHT22;64929;51.178;4.138;2023-02-03T18:11:01;11.50;80.10
76172;DHT22;64929;51.178;4.138;2023-02-03T18:13:27;11.60;79.90
76172;DHT22;64929;51.178;4.138;2023-02-03T18:15:56;11.70;78.90
76172;DHT22;64929;51.178;4.138;2023-02-03T18:18:22;11.70;78.70
76172;DHT22;64929;51.178;4.138;2023-02-03T18:20:48;11.80;78.30
76172;DHT22;64929;51.178;4.138;2023-02-03T18:23:13;11.70;78.80
76172;DHT22;64929;51.178;4.138;2023-02-03T18:25:39;11.60;79.20